Main page
METAR-TAF:

METAR-TAF

Airports :

Sibiu International Airport

Sibiu, Romania

latitude: 45-48N, longitude: 024-09E, elevation: 443 m

Current weather observation

The report was made 18 minutes ago, at 07:30 UTC
Wind 1 kt from variable directions
Temperature 25°C
Humidity 57%
Pressure 1014 hPa
Visibility 10 km or more
no clouds below 1500 m and no cumulonimbus

METAR: LRSB 300730Z VRB01KT CAVOK 25/16 Q1014

Time: 10:48 (07:48 UTC)

Forecast

The report was made 2 hours and 48 minutes ago, at 05:00 UTC
Forecast valid from 30 at 06 UTC to 31 at 06 UTC
Wind 3 kt from variable directions
Visibility 10 km or more
no clouds below 1500 m and no cumulonimbus
Probability 40% :
Temporary
from 30 at 14 UTC to 30 at 18 UTC
Wind 20 kt from variable directions
Visibility: 5000 m
Broken clouds at a height of 1500 ft
Scattered clouds at a height of 4500 ft, Cumulonimbus.
thunderstorm, rain

TAF: LRSB 300500Z 3006/3106 VRB03KT CAVOK PROB40 TEMPO 3014/3018 VRB20KT 5000 TSRA BKN015 SCT045CB

Weather observations and forecasts of more than 4000 airports (METAR and TAF reports).

The available stations are represented by yellow and red dots on the map.

Hover mouse over dot to see the name of the station.

Then click to see weather observations and forecasts.

To change the map : click on the green buttons with a black cross to zoom in, on the green button with a dash to zoom out, or on the green arrows for adjacent maps.


METAR-TAF: